createdAt,value
2016-07-16T00:02:05.929Z,45.4
2016-07-16T00:07:05.339Z,45.3
2016-07-16T00:12:05.415Z,45.4
2016-07-16T00:17:07.818Z,45.3
2016-07-16T00:22:05.203Z,45.3
2016-07-16T00:27:05.265Z,45.1
2016-07-16T00:32:05.784Z,45.1
2016-07-16T00:37:05.563Z,45.3
2016-07-16T00:42:05.212Z,45.3
2016-07-16T00:47:06.014Z,44.9
2016-07-16T00:52:04.951Z,44.9
2016-07-16T00:57:05.709Z,45.0
2016-07-16T01:02:06.419Z,45.2
2016-07-16T01:07:05.928Z,45.1
2016-07-16T01:12:05.524Z,45.1
2016-07-16T01:17:07.734Z,45.1
2016-07-16T01:22:05.301Z,45.1
2016-07-16T01:27:05.722Z,45.1
2016-07-16T01:32:05.281Z,45.2
2016-07-16T01:37:05.982Z,45.0
2016-07-16T01:42:05.611Z,45.0
2016-07-16T01:47:06.080Z,45.0
2016-07-16T01:52:05.431Z,44.8
2016-07-16T01:57:05.086Z,45.0
2016-07-16T02:02:05.596Z,44.8
2016-07-16T02:12:06.049Z,44.9
2016-07-16T02:17:07.911Z,44.8
2016-07-16T02:22:05.783Z,44.9
2016-07-16T02:27:05.395Z,45.0
2016-07-16T02:32:06.305Z,45.1
2016-07-16T02:37:05.526Z,45.1
2016-07-16T02:42:05.494Z,45.0
2016-07-16T02:47:06.609Z,45.0
2016-07-16T02:52:05.162Z,44.9
2016-07-16T02:57:05.100Z,44.8
2016-07-16T03:02:16.037Z,44.9
2016-07-16T03:07:05.949Z,45.0
2016-07-16T03:12:04.723Z,44.9
2016-07-16T03:17:26.045Z,44.9
2016-07-16T03:22:04.751Z,44.8
2016-07-16T03:27:05.095Z,44.8
2016-07-16T03:32:29.445Z,44.8
2016-07-16T03:37:06.171Z,44.7
2016-07-16T03:42:05.235Z,44.6
2016-07-16T03:47:27.875Z,44.6
2016-07-16T03:52:08.839Z,44.7
2016-07-16T03:57:05.242Z,44.6
2016-07-16T04:02:26.704Z,44.6
2016-07-16T04:07:05.060Z,44.5
2016-07-16T04:12:05.711Z,44.3
2016-07-16T04:17:26.736Z,44.3
2016-07-16T04:22:05.571Z,44.0
2016-07-16T04:27:06.120Z,44.0
2016-07-16T04:32:27.184Z,44.0
2016-07-16T04:37:04.717Z,44.1
2016-07-16T04:42:04.897Z,44.0
2016-07-16T04:47:21.304Z,43.8
2016-07-16T04:52:04.339Z,43.5
2016-07-16T04:57:05.266Z,43.4
2016-07-16T05:02:21.921Z,43.1
2016-07-16T05:07:04.962Z,43.1
2016-07-16T05:12:04.669Z,42.8
2016-07-16T05:17:28.338Z,42.8
2016-07-16T05:22:04.959Z,42.8
2016-07-16T05:27:04.528Z,42.7
2016-07-16T05:32:25.597Z,42.8
2016-07-16T05:37:05.923Z,42.6
2016-07-16T05:42:05.023Z,42.5
2016-07-16T05:47:26.611Z,42.5
2016-07-16T05:52:04.701Z,42.5
2016-07-16T05:57:05.475Z,42.5
2016-07-16T06:02:26.700Z,42.6
2016-07-16T06:07:04.971Z,41.8
2016-07-16T06:12:04.753Z,42.6
2016-07-16T06:17:27.784Z,43.1
2016-07-16T06:27:04.798Z,42.9
2016-07-16T06:32:28.350Z,42.8
2016-07-16T06:37:04.827Z,42.8
2016-07-16T06:42:04.934Z,42.7
2016-07-16T06:47:28.383Z,42.8
2016-07-16T06:52:05.387Z,42.9
2016-07-16T06:57:04.395Z,43.0
2016-07-16T07:02:30.648Z,42.9
2016-07-16T07:07:04.988Z,42.9
2016-07-16T07:12:04.199Z,42.9
2016-07-16T07:17:32.684Z,43.1
2016-07-16T07:22:05.839Z,43.1
2016-07-16T07:27:04.920Z,43.2
2016-07-16T07:32:32.571Z,43.2
2016-07-16T07:37:05.325Z,43.2
2016-07-16T07:42:10.359Z,43.4
2016-07-16T07:47:32.872Z,43.4
2016-07-16T07:52:05.586Z,43.5
2016-07-16T07:57:05.346Z,43.5
2016-07-16T08:02:33.867Z,43.9
2016-07-16T08:07:05.377Z,43.9
2016-07-16T08:12:05.121Z,43.9
2016-07-16T08:17:35.229Z,43.9
2016-07-16T08:22:06.274Z,43.6
2016-07-16T08:27:05.245Z,43.9
2016-07-16T08:32:35.752Z,43.9
2016-07-16T08:37:05.976Z,43.7
2016-07-16T08:42:07.332Z,43.6
2016-07-16T08:47:35.517Z,43.4
2016-07-16T08:52:06.514Z,43.3
2016-07-16T08:57:06.167Z,43.0
2016-07-16T09:02:32.535Z,42.9
2016-07-16T09:07:07.018Z,42.4
2016-07-16T09:12:06.510Z,42.4
2016-07-16T09:17:35.241Z,42.9
2016-07-16T09:22:06.858Z,42.4
2016-07-16T09:27:08.164Z,42.6
2016-07-16T09:32:32.270Z,42.6
2016-07-16T09:37:07.235Z,42.9
2016-07-16T09:42:06.868Z,43.0
2016-07-16T09:47:35.766Z,43.5
2016-07-16T09:52:07.466Z,43.5
2016-07-16T09:57:06.572Z,43.4
2016-07-16T10:02:33.030Z,43.0
2016-07-16T10:07:08.363Z,43.3
2016-07-16T10:12:07.139Z,43.2
2016-07-16T10:17:37.497Z,43.9
2016-07-16T10:22:09.481Z,43.6
2016-07-16T10:27:08.988Z,43.8
2016-07-16T10:32:35.999Z,43.6
2016-07-16T10:37:07.975Z,43.6
2016-07-16T10:42:09.052Z,42.3
2016-07-16T10:47:39.092Z,42.4
2016-07-16T10:52:09.014Z,42.2
2016-07-16T10:57:13.564Z,42.1
2016-07-16T11:02:25.972Z,42.6
2016-07-16T11:07:09.291Z,42.9
2016-07-16T11:12:09.255Z,43.0
2016-07-16T11:17:28.548Z,42.9
2016-07-16T11:22:08.429Z,42.7
2016-07-16T11:27:09.501Z,42.4
2016-07-16T11:32:12.296Z,41.9
2016-07-16T11:37:08.870Z,42.0
2016-07-16T11:42:14.154Z,42.6
2016-07-16T11:47:25.830Z,42.6
2016-07-16T11:52:09.894Z,42.8
2016-07-16T11:57:08.596Z,43.5
2016-07-16T12:02:32.076Z,43.2
2016-07-16T12:07:09.556Z,43.4
2016-07-16T12:12:14.240Z,43.3
2016-07-16T12:17:34.857Z,43.2
2016-07-16T12:22:07.869Z,43.3
2016-07-16T12:27:07.768Z,43.4
2016-07-16T12:32:37.000Z,43.4
2016-07-16T12:37:09.059Z,44.0
2016-07-16T12:42:09.067Z,43.7
2016-07-16T12:47:26.601Z,42.5
2016-07-16T12:52:09.373Z,43.7
2016-07-16T12:57:09.640Z,43.6
2016-07-16T13:02:31.488Z,43.5
2016-07-16T13:07:08.135Z,43.3
2016-07-16T13:12:08.737Z,43.4
2016-07-16T13:17:32.040Z,42.7
2016-07-16T13:22:09.909Z,43.6
2016-07-16T13:27:09.700Z,42.5
2016-07-16T13:32:41.215Z,42.6
2016-07-16T13:37:09.484Z,42.7
2016-07-16T13:42:09.256Z,42.0
2016-07-16T13:47:31.477Z,42.4
2016-07-16T13:52:08.862Z,41.8
2016-07-16T13:57:09.420Z,41.7
2016-07-16T20:02:19.133Z,44.3
2016-07-16T20:07:05.537Z,44.1
2016-07-16T20:12:05.702Z,44.0
2016-07-16T20:17:07.209Z,44.1
2016-07-16T20:22:05.323Z,44.1
2016-07-16T20:27:04.878Z,44.1
2016-07-16T20:32:06.122Z,44.2
2016-07-16T20:37:05.454Z,44.4
2016-07-16T20:42:05.831Z,44.3
2016-07-16T20:47:06.689Z,44.3
2016-07-16T20:52:05.808Z,44.3
2016-07-16T20:57:05.695Z,44.4
2016-07-16T21:02:05.911Z,44.6
2016-07-16T21:07:05.494Z,44.6
2016-07-16T21:12:04.985Z,44.4
2016-07-16T21:17:07.732Z,44.5
2016-07-16T21:22:05.974Z,44.5
2016-07-16T21:27:04.791Z,44.4
2016-07-16T21:32:05.868Z,44.7
2016-07-16T21:37:05.260Z,44.4
2016-07-16T21:42:05.796Z,44.5
2016-07-16T21:47:06.068Z,44.4
2016-07-16T21:52:04.714Z,44.3
2016-07-16T21:57:05.229Z,44.2
2016-07-16T22:02:06.136Z,44.2
2016-07-16T22:07:05.730Z,44.3
2016-07-16T22:12:06.252Z,44.1
2016-07-16T22:17:07.938Z,44.2
2016-07-16T22:22:05.556Z,44.2
2016-07-16T22:27:05.520Z,44.1
2016-07-16T22:32:05.671Z,44.1
2016-07-16T22:37:04.673Z,43.9
2016-07-16T22:42:05.094Z,43.8
2016-07-16T22:47:05.638Z,43.6
2016-07-16T22:52:05.038Z,43.7
2016-07-16T22:57:05.246Z,43.6
2016-07-16T23:02:05.789Z,43.2
2016-07-16T23:07:05.176Z,43.2
2016-07-16T23:12:05.314Z,43.2
2016-07-16T23:17:06.956Z,43.3
2016-07-16T23:22:05.263Z,43.1
2016-07-16T23:27:05.089Z,43.3
2016-07-16T23:32:06.073Z,43.3
2016-07-16T23:37:04.651Z,43.4
2016-07-16T23:42:04.721Z,43.3
2016-07-16T23:47:05.782Z,43.4
2016-07-16T23:52:05.281Z,43.3
2016-07-16T23:57:05.287Z,43.2
